sensor_id;sensor_type;location;lat;lon;timestamp;P1;durP1;ratioP1;P2;durP2;ratioP2
22861;SDS011;11598;50.652;6.172;2023-07-09T00:07:05;8.98;;;5.28;;
22861;SDS011;11598;50.652;6.172;2023-07-09T00:17:16;11.18;;;5.88;;
22861;SDS011;11598;50.652;6.172;2023-07-09T00:27:19;11.40;;;5.78;;
22861;SDS011;11598;50.652;6.172;2023-07-09T00:37:23;14.57;;;5.93;;
22861;SDS011;11598;50.652;6.172;2023-07-09T00:57:49;9.70;;;5.97;;
22861;SDS011;11598;50.652;6.172;2023-07-09T01:07:56;8.82;;;5.45;;
22861;SDS011;11598;50.652;6.172;2023-07-09T01:17:58;9.15;;;5.65;;
22861;SDS011;11598;50.652;6.172;2023-07-09T01:27:58;12.07;;;5.70;;
22861;SDS011;11598;50.652;6.172;2023-07-09T01:37:59;10.65;;;5.10;;
22861;SDS011;11598;50.652;6.172;2023-07-09T01:48:01;10.60;;;5.50;;
22861;SDS011;11598;50.652;6.172;2023-07-09T01:58:02;8.73;;;5.25;;
22861;SDS011;11598;50.652;6.172;2023-07-09T02:08:07;9.00;;;4.30;;
22861;SDS011;11598;50.652;6.172;2023-07-09T02:18:07;8.48;;;4.57;;
22861;SDS011;11598;50.652;6.172;2023-07-09T02:28:07;8.50;;;3.97;;
22861;SDS011;11598;50.652;6.172;2023-07-09T02:38:07;10.23;;;4.20;;
22861;SDS011;11598;50.652;6.172;2023-07-09T02:48:08;9.02;;;4.07;;
22861;SDS011;11598;50.652;6.172;2023-07-09T02:58:08;6.95;;;3.75;;
22861;SDS011;11598;50.652;6.172;2023-07-09T03:08:08;9.48;;;4.05;;
22861;SDS011;11598;50.652;6.172;2023-07-09T03:18:09;9.85;;;3.63;;
22861;SDS011;11598;50.652;6.172;2023-07-09T03:28:10;7.03;;;3.75;;
22861;SDS011;11598;50.652;6.172;2023-07-09T03:38:11;7.93;;;4.10;;
22861;SDS011;11598;50.652;6.172;2023-07-09T03:48:12;9.80;;;3.65;;
22861;SDS011;11598;50.652;6.172;2023-07-09T03:58:13;8.98;;;3.60;;
22861;SDS011;11598;50.652;6.172;2023-07-09T04:08:14;8.30;;;3.47;;
22861;SDS011;11598;50.652;6.172;2023-07-09T04:18:14;10.43;;;3.95;;
22861;SDS011;11598;50.652;6.172;2023-07-09T04:28:15;7.75;;;3.95;;
22861;SDS011;11598;50.652;6.172;2023-07-09T04:38:15;9.30;;;3.53;;
22861;SDS011;11598;50.652;6.172;2023-07-09T04:48:16;7.47;;;3.63;;
22861;SDS011;11598;50.652;6.172;2023-07-09T04:58:16;8.32;;;4.05;;
22861;SDS011;11598;50.652;6.172;2023-07-09T05:08:18;8.52;;;3.85;;
22861;SDS011;11598;50.652;6.172;2023-07-09T05:18:18;8.90;;;3.85;;
22861;SDS011;11598;50.652;6.172;2023-07-09T05:28:19;9.18;;;3.35;;
22861;SDS011;11598;50.652;6.172;2023-07-09T05:38:19;5.75;;;3.25;;
22861;SDS011;11598;50.652;6.172;2023-07-09T05:48:19;8.10;;;3.35;;
22861;SDS011;11598;50.652;6.172;2023-07-09T05:58:20;10.98;;;4.10;;
22861;SDS011;11598;50.652;6.172;2023-07-09T06:08:20;7.85;;;3.55;;
22861;SDS011;11598;50.652;6.172;2023-07-09T06:18:22;8.68;;;3.38;;
22861;SDS011;11598;50.652;6.172;2023-07-09T06:28:24;6.15;;;2.85;;
22861;SDS011;11598;50.652;6.172;2023-07-09T06:38:28;7.35;;;3.50;;
22861;SDS011;11598;50.652;6.172;2023-07-09T06:48:29;7.93;;;3.03;;
22861;SDS011;11598;50.652;6.172;2023-07-09T06:58:30;7.88;;;3.00;;
22861;SDS011;11598;50.652;6.172;2023-07-09T07:08:32;7.47;;;3.65;;
22861;SDS011;11598;50.652;6.172;2023-07-09T07:18:33;7.00;;;3.35;;
22861;SDS011;11598;50.652;6.172;2023-07-09T07:28:34;5.20;;;2.43;;
22861;SDS011;11598;50.652;6.172;2023-07-09T07:38:35;7.30;;;2.83;;
22861;SDS011;11598;50.652;6.172;2023-07-09T07:48:36;9.10;;;2.92;;
22861;SDS011;11598;50.652;6.172;2023-07-09T07:58:36;9.18;;;2.80;;
22861;SDS011;11598;50.652;6.172;2023-07-09T08:08:37;7.40;;;2.63;;
22861;SDS011;11598;50.652;6.172;2023-07-09T08:18:37;6.53;;;2.70;;
22861;SDS011;11598;50.652;6.172;2023-07-09T08:28:38;7.27;;;3.10;;
22861;SDS011;11598;50.652;6.172;2023-07-09T08:38:38;8.60;;;3.03;;
22861;SDS011;11598;50.652;6.172;2023-07-09T08:48:41;6.20;;;2.50;;
22861;SDS011;11598;50.652;6.172;2023-07-09T08:58:45;5.80;;;2.65;;
22861;SDS011;11598;50.652;6.172;2023-07-09T09:19:12;5.55;;;2.88;;
22861;SDS011;11598;50.652;6.172;2023-07-09T09:29:20;9.30;;;2.40;;
22861;SDS011;11598;50.652;6.172;2023-07-09T09:39:20;6.60;;;3.00;;
22861;SDS011;11598;50.652;6.172;2023-07-09T09:49:22;7.87;;;2.60;;
22861;SDS011;11598;50.652;6.172;2023-07-09T09:59:30;6.30;;;2.70;;
22861;SDS011;11598;50.652;6.172;2023-07-09T10:09:38;6.38;;;2.63;;
22861;SDS011;11598;50.652;6.172;2023-07-09T10:19:47;6.85;;;2.95;;
22861;SDS011;11598;50.652;6.172;2023-07-09T10:40:16;10.85;;;2.95;;
22861;SDS011;11598;50.652;6.172;2023-07-09T10:50:34;10.02;;;3.08;;
22861;SDS011;11598;50.652;6.172;2023-07-09T11:00:38;6.18;;;2.90;;
22861;SDS011;11598;50.652;6.172;2023-07-09T11:10:41;7.65;;;2.65;;
22861;SDS011;11598;50.652;6.172;2023-07-09T11:20:54;7.88;;;2.97;;
22861;SDS011;11598;50.652;6.172;2023-07-09T11:31:16;8.52;;;2.55;;
22861;SDS011;11598;50.652;6.172;2023-07-09T11:51:38;6.65;;;2.80;;
22861;SDS011;11598;50.652;6.172;2023-07-09T12:01:44;9.68;;;2.67;;
22861;SDS011;11598;50.652;6.172;2023-07-09T12:11:47;7.90;;;2.53;;
22861;SDS011;11598;50.652;6.172;2023-07-09T12:21:53;6.35;;;2.40;;
22861;SDS011;11598;50.652;6.172;2023-07-09T12:31:57;7.20;;;3.00;;
22861;SDS011;11598;50.652;6.172;2023-07-09T12:42:01;6.88;;;2.80;;
22861;SDS011;11598;50.652;6.172;2023-07-09T12:52:10;11.05;;;3.50;;
22861;SDS011;11598;50.652;6.172;2023-07-09T13:02:16;6.80;;;2.88;;
22861;SDS011;11598;50.652;6.172;2023-07-09T13:12:28;7.35;;;3.53;;
22861;SDS011;11598;50.652;6.172;2023-07-09T13:22:30;6.95;;;3.30;;
22861;SDS011;11598;50.652;6.172;2023-07-09T13:32:32;7.40;;;2.90;;
22861;SDS011;11598;50.652;6.172;2023-07-09T13:42:32;11.05;;;4.50;;
22861;SDS011;11598;50.652;6.172;2023-07-09T13:52:32;9.00;;;4.93;;
22861;SDS011;11598;50.652;6.172;2023-07-09T14:02:34;18.05;;;11.27;;
22861;SDS011;11598;50.652;6.172;2023-07-09T14:12:34;26.73;;;17.70;;
22861;SDS011;11598;50.652;6.172;2023-07-09T14:22:39;21.77;;;17.25;;
22861;SDS011;11598;50.652;6.172;2023-07-09T14:32:41;35.92;;;24.80;;
22861;SDS011;11598;50.652;6.172;2023-07-09T14:42:42;38.28;;;27.33;;
22861;SDS011;11598;50.652;6.172;2023-07-09T14:52:44;43.17;;;29.15;;
22861;SDS011;11598;50.652;6.172;2023-07-09T15:02:48;66.78;;;33.50;;
22861;SDS011;11598;50.652;6.172;2023-07-09T15:12:50;34.03;;;22.10;;
22861;SDS011;11598;50.652;6.172;2023-07-09T15:22:51;30.63;;;18.48;;
22861;SDS011;11598;50.652;6.172;2023-07-09T15:32:54;30.50;;;20.50;;
22861;SDS011;11598;50.652;6.172;2023-07-09T15:42:58;24.97;;;17.70;;
22861;SDS011;11598;50.652;6.172;2023-07-09T15:53:04;12.52;;;7.00;;
22861;SDS011;11598;50.652;6.172;2023-07-09T16:03:09;6.28;;;4.05;;
22861;SDS011;11598;50.652;6.172;2023-07-09T16:13:20;12.48;;;5.95;;
22861;SDS011;11598;50.652;6.172;2023-07-09T16:23:22;8.95;;;5.28;;
22861;SDS011;11598;50.652;6.172;2023-07-09T16:33:23;9.57;;;4.40;;
22861;SDS011;11598;50.652;6.172;2023-07-09T16:43:23;22.00;;;12.00;;
22861;SDS011;11598;50.652;6.172;2023-07-09T16:53:24;21.52;;;11.70;;
22861;SDS011;11598;50.652;6.172;2023-07-09T17:03:25;17.83;;;14.07;;
22861;SDS011;11598;50.652;6.172;2023-07-09T17:13:26;25.23;;;18.80;;
22861;SDS011;11598;50.652;6.172;2023-07-09T17:23:27;25.50;;;20.42;;
22861;SDS011;11598;50.652;6.172;2023-07-09T17:33:29;27.80;;;20.15;;
22861;SDS011;11598;50.652;6.172;2023-07-09T17:43:31;25.83;;;20.02;;
22861;SDS011;11598;50.652;6.172;2023-07-09T17:53:32;23.13;;;18.70;;
22861;SDS011;11598;50.652;6.172;2023-07-09T18:03:35;16.75;;;12.02;;
22861;SDS011;11598;50.652;6.172;2023-07-09T18:13:36;8.98;;;4.85;;
22861;SDS011;11598;50.652;6.172;2023-07-09T18:23:37;9.10;;;4.97;;
22861;SDS011;11598;50.652;6.172;2023-07-09T18:33:37;10.07;;;5.88;;
22861;SDS011;11598;50.652;6.172;2023-07-09T18:43:38;10.37;;;5.50;;
22861;SDS011;11598;50.652;6.172;2023-07-09T18:53:38;9.15;;;6.75;;
22861;SDS011;11598;50.652;6.172;2023-07-09T19:03:38;9.82;;;6.25;;
22861;SDS011;11598;50.652;6.172;2023-07-09T19:13:39;9.00;;;5.03;;
22861;SDS011;11598;50.652;6.172;2023-07-09T19:23:40;10.07;;;7.07;;
22861;SDS011;11598;50.652;6.172;2023-07-09T19:33:40;8.35;;;5.82;;
22861;SDS011;11598;50.652;6.172;2023-07-09T19:43:41;12.90;;;7.05;;
22861;SDS011;11598;50.652;6.172;2023-07-09T19:53:41;10.68;;;6.40;;
22861;SDS011;11598;50.652;6.172;2023-07-09T20:03:42;10.15;;;6.13;;
22861;SDS011;11598;50.652;6.172;2023-07-09T20:13:42;7.40;;;5.20;;
22861;SDS011;11598;50.652;6.172;2023-07-09T20:23:42;7.80;;;5.30;;
22861;SDS011;11598;50.652;6.172;2023-07-09T20:33:43;9.77;;;6.38;;
22861;SDS011;11598;50.652;6.172;2023-07-09T20:43:43;8.80;;;6.07;;
22861;SDS011;11598;50.652;6.172;2023-07-09T20:53:43;13.13;;;7.93;;
22861;SDS011;11598;50.652;6.172;2023-07-09T21:03:44;10.60;;;7.25;;
22861;SDS011;11598;50.652;6.172;2023-07-09T21:13:44;12.43;;;9.07;;
22861;SDS011;11598;50.652;6.172;2023-07-09T21:23:45;12.10;;;8.40;;
22861;SDS011;11598;50.652;6.172;2023-07-09T21:33:45;16.90;;;11.75;;
22861;SDS011;11598;50.652;6.172;2023-07-09T21:43:46;28.00;;;22.48;;
22861;SDS011;11598;50.652;6.172;2023-07-09T21:53:46;28.48;;;21.55;;
22861;SDS011;11598;50.652;6.172;2023-07-09T22:03:48;25.90;;;22.67;;
22861;SDS011;11598;50.652;6.172;2023-07-09T22:13:48;33.35;;;25.70;;
22861;SDS011;11598;50.652;6.172;2023-07-09T22:23:49;40.57;;;31.87;;
22861;SDS011;11598;50.652;6.172;2023-07-09T22:33:53;34.30;;;27.98;;
22861;SDS011;11598;50.652;6.172;2023-07-09T22:43:53;42.83;;;32.40;;
22861;SDS011;11598;50.652;6.172;2023-07-09T22:53:53;56.17;;;41.65;;
22861;SDS011;11598;50.652;6.172;2023-07-09T23:03:54;38.97;;;31.10;;
22861;SDS011;11598;50.652;6.172;2023-07-09T23:13:55;37.22;;;28.30;;
22861;SDS011;11598;50.652;6.172;2023-07-09T23:23:56;46.38;;;33.97;;
22861;SDS011;11598;50.652;6.172;2023-07-09T23:34:01;31.58;;;24.33;;
22861;SDS011;11598;50.652;6.172;2023-07-09T23:44:02;33.03;;;19.83;;
22861;SDS011;11598;50.652;6.172;2023-07-09T23:54:04;30.30;;;21.67;;
